Van Wert, Iowa
Current Conditions -  °F | °C
As of 1:35 PM on Thursday 27 Nov 2014 (Local Time) from KI75 Reporting Station
Broken Clouds Broken Clouds  
Wind Chill: 16°   Ceiling: 5000
Heat Index: 16°   Visibility: 10mi
Dew Point:   Wind: 0mph
Humidity: 59%   Direction: NA
Pressure: 30.46"   Gusts: NA
Location:  40.87°N, 93.79°W
Report Text: KI75 271935Z AUTO 00000KT 10SM SCT042 BKN050 M09/M16 A3046 RMK AO2 T10911159
Loading
Personal Weather Stations






























Interactive Weather Map New forecast layout! Learn more

10-Day Weather Forecast

Advertisements
Track Severe Weather on mobile